KLGU/LGU METAR and TAF weather

Enter ICAO airport designator
Station Type Date Time Source
KLGU METAR 2021/09/28 16:51 UTC NOAA

KLGU 281651Z AUTO 36021G28KT 10SM FEW120 17/04 A2988 RMK AO2 PK WND 36028/1649 SLP083 T01720039


Station Type Date Time Source
KLGU Decoded METAR 2021/09/28 16:51 UTC NOAA

LOGAN CACHE AIRPORT, UT, United States (KLGU) 41-47N 111-51W 1355M
Sep 28, 2021 - 12:51 PM EDT / 2021.09.28 1651 UTC
Wind: from the N (360 degrees) at 24 MPH (21 KT) gusting to 32 MPH (28 KT):0
Visibility: 10 mile(s):0
Sky conditions: mostly clear
Temperature: 63.0 F (17.2 C)
Dew Point: 39.0 F (3.9 C)
Relative Humidity: 41%
Pressure (altimeter): 29.88 in. Hg (1011 hPa)
ob: KLGU 281651Z AUTO 36021G28KT 10SM FEW120 17/04 A2988 RMK AO2 PK WND 36028/1649 SLP083 T01720039
cycle: 17

Station Type Date Time Source
KLGU TAF 2021/09/28 18:24 UTC NOAA

TAF KLGU 281723Z 2818/2918 35018G28KT P6SM VCSH BKN040 BKN090
FM282100 32010G20KT P6SM SCT090 BKN150
FM290200 32009KT P6SM SCT150
FM290700 VRB06KT P6SM SKC

Example: see airport list